Etusivu
METAR-TAF:

METAR-TAF

Lentoasemat :

Piacenza, Italia

Leveyspiiri: 44-55N, Pituuspiiri: 009-44E, korkeus merenpinnasta: 134 m

Tämänhetkinen sää

Tämä raportti tehtiin 33 minuuttia sitten, kello 15.55 UTC
Tuuli 1 kn idästä/kaakosta
Lämpötila 20°C
Kosteus 100%
Ilmanpaine 1019 hPa
Näkyvyys: 5000 m
Muutamia pilviä 4000 ft:n korkeudessa
Hajonneita pilviä 8000 ft:n korkeudessa
utua

METAR: LIMS 141555Z 12001KT 5000 BR FEW040 BKN080 20/20 Q1019 RMK BKN VIS MIN 5000 WIND THR30 VRB01KT WHT

Aika: 18:28 (16:28 UTC)


TAF: puuttuu

Säähavainnot ja -ennusteet yli 4000 lentoasemalta (METAR- ja TAF-raportit).

Käytössä olevat sääasemat on merkitty karttaan keltaisilla ja punaisilla pisteillä.

Aseta hiiri pisteen päälle nähdäksesi sääaseman nimen.

Klikkaa sitten nähdäksesi säähavainnot ja -ennusteet.

Kartan vaihtaminen: klikkaa mustalla rastilla varustettuja vihreitä pisteitä, niin voit zoomata sisään; viivalla varustettua vihreää pistettä, niin voit zoomata ulos tai vihreitä nuolia, niin pääset viereisille kartoille.


METAR-TAF: